createdAt,value
2017-10-19T00:00:23.765Z,14.50
2017-10-19T00:02:52.003Z,14.30
2017-10-19T00:05:19.492Z,14.30
2017-10-19T00:07:46.954Z,14.30
2017-10-19T00:10:15.207Z,14.20
2017-10-19T00:12:42.681Z,14.20
2017-10-19T00:15:11.108Z,14.20
2017-10-19T00:17:38.602Z,14.20
2017-10-19T00:20:06.079Z,14.30
2017-10-19T00:22:34.312Z,14.20
2017-10-19T00:25:01.776Z,14.10
2017-10-19T00:27:29.245Z,14.10
2017-10-19T00:29:56.725Z,14.20
2017-10-19T00:32:24.977Z,14.20
2017-10-19T00:34:53.214Z,14.20
2017-10-19T00:37:20.699Z,14.20
2017-10-19T00:39:48.280Z,14.10
2017-10-19T00:42:15.755Z,14.10
2017-10-19T00:44:44.024Z,14.10
2017-10-19T00:47:12.270Z,14.30
2017-10-19T00:49:39.725Z,14.30
2017-10-19T00:52:07.212Z,14.20
2017-10-19T00:54:35.453Z,14.20
2017-10-19T00:57:03.104Z,14.10
2017-10-19T00:59:30.597Z,14.10
2017-10-19T01:01:58.076Z,14.10
2017-10-19T01:04:26.319Z,14.20
2017-10-19T01:06:53.818Z,14.20
2017-10-19T01:09:21.283Z,14.20
2017-10-19T01:11:48.753Z,14.20
2017-10-19T01:14:16.218Z,14.20
2017-10-19T01:16:43.722Z,14.20
2017-10-19T01:19:11.962Z,14.10
2017-10-19T01:21:39.422Z,14.10
2017-10-19T01:24:07.009Z,14.20
2017-10-19T01:26:34.477Z,14.30
2017-10-19T01:29:02.731Z,14.20
2017-10-19T01:31:31.779Z,14.10
2017-10-19T01:33:59.249Z,14.20
2017-10-19T01:36:26.729Z,14.00
2017-10-19T01:38:54.203Z,14.00
2017-10-19T01:41:21.790Z,14.00
2017-10-19T01:43:49.253Z,13.90
2017-10-19T01:46:16.729Z,13.90
2017-10-19T01:48:44.346Z,14.00
2017-10-19T01:51:12.586Z,14.10
2017-10-19T01:53:40.073Z,14.20
2017-10-19T01:56:07.537Z,14.10
2017-10-19T01:58:35.760Z,14.10
2017-10-19T02:01:04.052Z,14.10
2017-10-19T02:03:31.532Z,13.90
2017-10-19T02:05:58.990Z,13.90
2017-10-19T02:08:26.527Z,13.90
2017-10-19T02:10:53.992Z,13.80
2017-10-19T02:13:21.478Z,13.80
2017-10-19T02:15:49.711Z,14.10
2017-10-19T02:18:17.181Z,14.10
2017-10-19T02:20:44.702Z,14.00
2017-10-19T02:23:12.169Z,14.10
2017-10-19T02:25:39.640Z,14.00
2017-10-19T02:28:07.226Z,14.00
2017-10-19T02:30:34.706Z,14.00
2017-10-19T02:33:02.932Z,14.10
2017-10-19T02:35:30.403Z,14.10
2017-10-19T02:37:59.386Z,14.10
2017-10-19T02:40:26.993Z,14.10
2017-10-19T02:42:54.454Z,14.00
2017-10-19T02:45:21.934Z,14.10
2017-10-19T02:47:49.391Z,14.00
2017-10-19T02:50:16.942Z,14.00
2017-10-19T02:52:44.401Z,13.90
2017-10-19T02:55:11.873Z,13.90
2017-10-19T02:57:39.357Z,14.00
2017-10-19T03:00:08.380Z,13.80
2017-10-19T03:02:36.620Z,13.80
2017-10-19T03:05:04.094Z,13.80
2017-10-19T03:07:32.332Z,13.70
2017-10-19T03:09:59.802Z,13.70
2017-10-19T03:12:27.309Z,13.70
2017-10-19T03:14:54.787Z,13.60
2017-10-19T03:17:22.249Z,13.60
2017-10-19T03:19:49.725Z,13.50
2017-10-19T03:22:17.177Z,13.60
2017-10-19T03:24:44.659Z,13.60
2017-10-19T03:27:13.661Z,13.60
2017-10-19T03:29:41.138Z,13.60
2017-10-19T03:32:08.597Z,13.60
2017-10-19T03:34:36.193Z,13.60
2017-10-19T03:37:03.652Z,13.70
2017-10-19T03:39:31.288Z,13.70
2017-10-19T03:41:58.758Z,13.70
2017-10-19T03:44:26.217Z,13.70
2017-10-19T03:46:53.701Z,13.90
2017-10-19T03:49:21.169Z,13.80
2017-10-19T03:51:49.543Z,13.80
2017-10-19T03:54:17.776Z,13.70
2017-10-19T03:56:45.272Z,13.70
2017-10-19T03:59:12.844Z,13.70
2017-10-19T04:01:40.318Z,13.70
2017-10-19T04:04:08.543Z,13.90
2017-10-19T04:06:36.038Z,13.90
2017-10-19T04:09:03.505Z,13.90
2017-10-19T04:11:31.744Z,14.10
2017-10-19T04:13:59.817Z,14.00
2017-10-19T04:16:27.292Z,14.00
2017-10-19T04:18:55.539Z,13.90
2017-10-19T04:21:23.031Z,13.80
2017-10-19T04:23:51.303Z,13.90
2017-10-19T04:26:18.765Z,13.80
2017-10-19T04:28:47.034Z,13.90
2017-10-19T04:31:14.509Z,13.80
2017-10-19T04:33:42.740Z,13.80
2017-10-19T04:36:10.478Z,13.80
2017-10-19T04:38:37.952Z,13.80
2017-10-19T04:41:05.453Z,13.90
2017-10-19T04:43:33.681Z,13.90
2017-10-19T04:46:01.159Z,13.90
2017-10-19T04:48:28.629Z,13.80
2017-10-19T04:50:56.872Z,13.80
2017-10-19T04:53:24.357Z,13.80
2017-10-19T04:55:51.840Z,13.80
2017-10-19T04:58:20.097Z,13.60
2017-10-19T05:00:47.573Z,13.60
2017-10-19T05:03:15.945Z,13.60
2017-10-19T05:05:44.177Z,13.60
2017-10-19T05:08:11.664Z,13.60
2017-10-19T05:10:39.142Z,13.50
2017-10-19T05:13:07.373Z,13.50
2017-10-19T05:15:34.962Z,13.50
2017-10-19T05:18:03.197Z,13.40
2017-10-19T05:20:30.682Z,13.40
2017-10-19T05:22:58.329Z,13.40
2017-10-19T05:25:25.793Z,13.40
2017-10-19T05:27:53.285Z,13.40
2017-10-19T05:30:21.537Z,13.50
2017-10-19T05:32:49.149Z,13.40
2017-10-19T05:35:16.621Z,13.50
2017-10-19T05:37:44.108Z,13.50
2017-10-19T05:40:11.572Z,13.40
2017-10-19T05:42:39.842Z,13.20
2017-10-19T05:45:07.306Z,13.20
2017-10-19T05:47:35.548Z,13.10
2017-10-19T05:50:04.770Z,13.00
2017-10-19T05:52:35.545Z,12.90
2017-10-19T05:55:03.026Z,12.90
2017-10-19T05:57:30.572Z,12.90
2017-10-19T05:59:58.039Z,12.80
2017-10-19T06:02:25.535Z,12.80
2017-10-19T06:04:53.010Z,12.80
2017-10-19T06:07:21.248Z,12.70
2017-10-19T06:09:48.734Z,12.70
2017-10-19T06:12:16.969Z,12.70
2017-10-19T06:14:44.465Z,12.70
2017-10-19T06:17:12.709Z,12.60
2017-10-19T06:19:40.190Z,12.60
2017-10-19T06:22:07.698Z,12.70
2017-10-19T06:24:35.216Z,12.70
2017-10-19T06:27:03.450Z,12.60
2017-10-19T06:29:30.941Z,12.60
2017-10-19T06:31:59.184Z,12.60
2017-10-19T06:34:26.682Z,12.60
2017-10-19T06:36:54.929Z,12.70
2017-10-19T06:39:22.380Z,12.70
2017-10-19T06:41:49.884Z,12.60
2017-10-19T06:44:18.142Z,12.80
2017-10-19T06:46:46.529Z,14.10
2017-10-19T06:49:14.765Z,15.20
2017-10-19T06:51:42.249Z,15.20
2017-10-19T06:54:09.837Z,15.10
2017-10-19T06:56:37.321Z,15.20
2017-10-19T06:59:04.811Z,15.50
2017-10-19T07:01:32.277Z,15.80
2017-10-19T07:03:59.761Z,15.80
2017-10-19T07:06:27.989Z,15.70
2017-10-19T07:08:55.472Z,15.70
2017-10-19T07:11:23.072Z,15.10
2017-10-19T07:13:50.555Z,14.80
2017-10-19T07:16:18.031Z,14.60
2017-10-19T07:18:45.554Z,14.60
2017-10-19T07:21:13.027Z,14.90
2017-10-19T07:23:40.710Z,15.00
2017-10-19T07:26:08.938Z,14.90
2017-10-19T07:28:36.414Z,14.90
2017-10-19T07:31:03.904Z,15.00
2017-10-19T07:33:32.870Z,15.90
2017-10-19T07:36:00.352Z,15.90
2017-10-19T07:38:27.817Z,15.60
2017-10-19T07:40:56.090Z,15.10
2017-10-19T07:43:24.321Z,14.80
2017-10-19T07:45:51.785Z,14.80
2017-10-19T07:48:19.273Z,14.70
2017-10-19T07:50:48.287Z,14.70
2017-10-19T07:53:16.589Z,14.60
2017-10-19T07:55:44.050Z,14.60
2017-10-19T07:58:11.609Z,14.50
2017-10-19T08:00:39.134Z,14.50
2017-10-19T08:03:08.207Z,14.50
2017-10-19T08:05:35.680Z,14.50
2017-10-19T08:08:03.922Z,14.60
2017-10-19T08:10:31.402Z,14.60
2017-10-19T08:12:59.381Z,14.70
2017-10-19T08:15:27.612Z,14.70
2017-10-19T08:17:55.076Z,14.70
2017-10-19T08:20:22.567Z,14.80
2017-10-19T08:22:50.119Z,14.90
2017-10-19T08:25:17.718Z,15.00
2017-10-19T08:27:45.189Z,15.00
2017-10-19T08:30:12.649Z,14.90
2017-10-19T08:32:40.121Z,15.00
2017-10-19T08:35:07.822Z,15.00
2017-10-19T08:37:36.044Z,15.10
2017-10-19T08:40:03.523Z,15.10
2017-10-19T08:42:30.997Z,15.10
2017-10-19T08:44:58.480Z,15.20
2017-10-19T08:47:26.036Z,15.30
2017-10-19T08:49:53.523Z,15.30
2017-10-19T08:52:21.000Z,15.30
2017-10-19T08:54:48.483Z,15.40
2017-10-19T08:57:15.942Z,15.50
2017-10-19T08:59:43.425Z,15.50
2017-10-19T09:02:11.658Z,15.70
2017-10-19T09:04:39.130Z,15.70
2017-10-19T09:07:06.597Z,15.60
2017-10-19T09:09:34.853Z,15.80
2017-10-19T09:12:02.335Z,15.80
2017-10-19T09:14:30.670Z,16.00
2017-10-19T09:16:58.152Z,15.90
2017-10-19T09:19:25.610Z,15.90
2017-10-19T09:21:53.174Z,16.10
2017-10-19T09:24:22.064Z,16.30
2017-10-19T09:26:49.526Z,16.30
2017-10-19T09:29:17.786Z,16.70
2017-10-19T09:31:45.250Z,16.70
2017-10-19T09:34:12.735Z,16.70
2017-10-19T09:36:40.203Z,16.60
2017-10-19T09:39:07.671Z,16.80
2017-10-19T09:41:35.158Z,16.80
2017-10-19T09:44:02.663Z,17.00
2017-10-19T09:46:30.122Z,17.30
2017-10-19T09:48:58.080Z,17.40
2017-10-19T09:51:26.421Z,17.60
2017-10-19T09:53:54.265Z,17.50
2017-10-19T09:56:21.761Z,17.50
2017-10-19T09:58:49.212Z,17.30
2017-10-19T10:01:16.692Z,17.30
2017-10-19T10:03:44.925Z,17.10
2017-10-19T10:06:12.393Z,17.10
2017-10-19T10:08:39.869Z,17.30
2017-10-19T10:11:08.105Z,17.50
2017-10-19T10:13:35.586Z,17.50
2017-10-19T10:16:03.174Z,17.50
2017-10-19T10:18:31.433Z,17.60
2017-10-19T10:20:59.653Z,17.60
2017-10-19T10:23:27.144Z,17.60
2017-10-19T10:25:56.129Z,17.70
2017-10-19T10:28:23.628Z,17.70
2017-10-19T10:30:51.885Z,17.70
2017-10-19T10:33:19.343Z,17.70
2017-10-19T10:35:46.805Z,17.80
2017-10-19T10:38:15.257Z,18.00
2017-10-19T10:40:42.727Z,18.00
2017-10-19T10:43:10.962Z,18.30
2017-10-19T10:45:38.413Z,18.20
2017-10-19T10:48:05.893Z,18.40
2017-10-19T10:50:33.353Z,18.50
2017-10-19T10:53:00.834Z,18.60
2017-10-19T10:55:28.309Z,18.70
2017-10-19T10:57:56.566Z,18.80
2017-10-19T11:00:24.028Z,18.80
2017-10-19T11:02:51.494Z,18.80
2017-10-19T11:05:19.737Z,18.90
2017-10-19T11:07:47.200Z,19.00
2017-10-19T11:10:15.442Z,19.00
2017-10-19T11:12:42.914Z,18.90
2017-10-19T11:15:10.509Z,19.00
2017-10-19T11:17:38.761Z,19.10
2017-10-19T11:20:06.243Z,19.10
2017-10-19T11:22:33.720Z,19.30
2017-10-19T11:25:01.198Z,19.20
2017-10-19T11:27:28.673Z,19.30
2017-10-19T11:29:56.159Z,19.50
2017-10-19T11:32:23.633Z,19.70
2017-10-19T11:34:51.953Z,19.90
2017-10-19T11:37:19.433Z,19.80
2017-10-19T11:39:47.009Z,19.80
2017-10-19T11:42:14.493Z,20.00
2017-10-19T11:44:42.841Z,20.40
2017-10-19T11:47:10.325Z,20.40
2017-10-19T11:49:38.573Z,21.10
2017-10-19T11:52:06.046Z,21.10
2017-10-19T11:54:33.516Z,21.70
2017-10-19T11:57:01.750Z,22.70
2017-10-19T11:59:29.633Z,22.70
2017-10-19T12:01:57.098Z,22.60
2017-10-19T12:04:24.584Z,22.50
2017-10-19T12:06:52.590Z,22.70
2017-10-19T12:09:20.066Z,22.70
2017-10-19T12:11:47.694Z,22.60
2017-10-19T12:14:15.176Z,22.60
2017-10-19T12:16:42.736Z,22.60
2017-10-19T12:19:10.202Z,22.70
2017-10-19T12:21:38.418Z,23.10
2017-10-19T12:24:05.887Z,22.50
2017-10-19T12:26:33.377Z,22.40
2017-10-19T12:29:00.846Z,22.40
2017-10-19T12:31:28.309Z,22.60
2017-10-19T12:33:55.799Z,22.50
2017-10-19T12:36:23.357Z,22.60
2017-10-19T12:38:50.914Z,22.60
2017-10-19T12:41:19.152Z,22.40
2017-10-19T12:43:46.632Z,22.40
2017-10-19T12:46:14.093Z,22.40
2017-10-19T12:48:42.343Z,22.40
2017-10-19T12:51:09.899Z,22.40
2017-10-19T12:53:37.363Z,22.30
2017-10-19T12:56:04.841Z,22.10
2017-10-19T12:58:33.155Z,21.90
2017-10-19T13:01:00.633Z,21.90
2017-10-19T13:03:28.141Z,21.90
2017-10-19T13:05:56.383Z,21.90
2017-10-19T13:08:23.860Z,21.90
2017-10-19T13:10:52.084Z,21.90
2017-10-19T13:13:19.558Z,21.90
2017-10-19T13:15:47.017Z,22.10
2017-10-19T13:18:14.743Z,22.30
2017-10-19T13:20:42.199Z,22.30
2017-10-19T13:23:09.665Z,22.20
2017-10-19T13:25:37.147Z,22.20
2017-10-19T13:28:04.614Z,22.20
2017-10-19T13:30:32.150Z,22.10
2017-10-19T13:32:59.618Z,22.20
2017-10-19T13:35:27.082Z,22.10
2017-10-19T13:37:54.568Z,22.00
2017-10-19T13:40:22.793Z,22.00
2017-10-19T13:42:50.272Z,22.00
2017-10-19T13:45:17.764Z,22.00
2017-10-19T13:47:46.013Z,22.20
2017-10-19T13:50:13.495Z,22.10
2017-10-19T13:52:41.720Z,22.00
2017-10-19T13:55:09.205Z,22.00
2017-10-19T13:57:36.662Z,22.00
2017-10-19T14:00:04.145Z,21.90
2017-10-19T14:02:31.836Z,22.10
2017-10-19T14:04:59.317Z,22.10
2017-10-19T14:07:27.296Z,22.10
2017-10-19T14:09:54.762Z,22.00
2017-10-19T14:12:26.418Z,21.90
2017-10-19T14:14:54.147Z,21.90
2017-10-19T14:17:22.541Z,22.10
2017-10-19T14:19:50.841Z,22.10
2017-10-19T14:22:23.085Z,22.00
2017-10-19T14:24:52.744Z,21.90
2017-10-19T14:27:21.678Z,21.90
2017-10-19T14:29:55.357Z,21.90
2017-10-19T14:32:23.350Z,21.90
2017-10-19T14:34:50.953Z,21.90
2017-10-19T14:37:19.340Z,21.70
2017-10-19T14:39:47.106Z,21.70
2017-10-19T14:42:14.952Z,21.80
2017-10-19T14:44:43.196Z,21.70
2017-10-19T14:47:10.699Z,21.70
2017-10-19T14:49:38.951Z,21.60
2017-10-19T14:52:06.596Z,21.60
2017-10-19T14:54:35.786Z,21.50
2017-10-19T14:57:04.173Z,21.40
2017-10-19T14:59:31.976Z,21.30
2017-10-19T15:02:15.957Z,21.10
2017-10-19T15:04:44.810Z,21.00
2017-10-19T15:07:14.073Z,21.10
2017-10-19T15:09:45.872Z,21.10
2017-10-19T15:12:17.691Z,21.00
2017-10-19T15:14:45.193Z,21.00
2017-10-19T15:17:12.746Z,20.90
2017-10-19T15:19:40.772Z,20.90
2017-10-19T15:22:09.988Z,20.90
2017-10-19T15:24:38.952Z,20.80
2017-10-19T15:27:07.516Z,20.80
2017-10-19T15:29:34.994Z,20.80
2017-10-19T15:32:04.850Z,20.80
2017-10-19T15:34:33.348Z,20.70
2017-10-19T15:37:01.161Z,20.70
2017-10-19T15:39:29.264Z,20.70
2017-10-19T15:41:57.399Z,20.70
2017-10-19T15:44:24.870Z,20.60
2017-10-19T15:46:53.204Z,20.60
2017-10-19T15:49:20.702Z,20.50
2017-10-19T15:51:48.507Z,20.50
2017-10-19T15:54:20.070Z,20.40
2017-10-19T15:56:47.777Z,20.40
2017-10-19T15:59:15.249Z,20.40
2017-10-19T16:01:44.250Z,20.40
2017-10-19T16:04:14.070Z,20.20
2017-10-19T16:06:43.666Z,20.20
2017-10-19T16:09:11.672Z,20.20
2017-10-19T16:11:40.467Z,20.20
2017-10-19T16:14:08.852Z,20.10
2017-10-19T16:16:37.946Z,20.10
2017-10-19T16:19:07.382Z,20.10
2017-10-19T16:21:34.974Z,20.00
2017-10-19T16:24:03.938Z,19.90
2017-10-19T16:26:32.173Z,19.90
2017-10-19T16:29:00.201Z,19.90
2017-10-19T16:31:29.730Z,19.80
2017-10-19T16:33:57.567Z,19.70
2017-10-19T16:36:29.801Z,19.70
2017-10-19T16:38:57.292Z,19.70
2017-10-19T16:41:25.574Z,19.50
2017-10-19T16:43:53.038Z,19.50
2017-10-19T16:46:21.295Z,19.40
2017-10-19T16:48:48.749Z,19.40
2017-10-19T16:51:16.241Z,19.40
2017-10-19T16:53:43.711Z,19.40
2017-10-19T16:56:11.357Z,19.30
2017-10-19T16:58:38.840Z,19.20
2017-10-19T17:01:06.302Z,19.20
2017-10-19T17:03:33.775Z,19.20
2017-10-19T17:06:01.307Z,19.20
2017-10-19T17:08:28.784Z,19.10
2017-10-19T17:10:56.279Z,19.10
2017-10-19T17:13:23.750Z,19.10
2017-10-19T17:15:51.990Z,19.00
2017-10-19T17:18:19.626Z,19.00
2017-10-19T17:20:47.101Z,18.90
2017-10-19T17:23:14.588Z,18.90
2017-10-19T17:25:42.825Z,18.80
2017-10-19T17:28:10.294Z,18.80
2017-10-19T17:30:37.777Z,18.80
2017-10-19T17:33:06.009Z,18.70
2017-10-19T17:35:33.477Z,18.70
2017-10-19T17:38:00.953Z,18.60
2017-10-19T17:40:28.438Z,18.60
2017-10-19T17:42:55.917Z,18.60
2017-10-19T17:45:23.612Z,18.50
2017-10-19T17:47:51.089Z,18.50
2017-10-19T17:50:18.597Z,18.50
2017-10-19T17:52:46.073Z,18.50
2017-10-19T17:55:13.537Z,18.50
2017-10-19T17:57:41.133Z,18.50
2017-10-19T18:00:09.373Z,18.50
2017-10-19T18:02:36.864Z,18.50
2017-10-19T18:05:05.105Z,18.50
2017-10-19T18:07:32.590Z,18.40
2017-10-19T18:10:00.828Z,18.40
2017-10-19T18:12:28.323Z,18.40
2017-10-19T18:14:55.785Z,18.40
2017-10-19T18:17:24.042Z,18.30
2017-10-19T18:19:52.293Z,18.30
2017-10-19T18:22:20.474Z,18.30
2017-10-19T18:24:47.945Z,18.30
2017-10-19T18:27:15.414Z,18.30
2017-10-19T18:29:43.673Z,18.10
2017-10-19T18:32:11.135Z,18.10
2017-10-19T18:34:38.800Z,18.10
2017-10-19T18:37:06.277Z,18.00
2017-10-19T18:39:34.566Z,18.00
2017-10-19T18:42:02.047Z,18.00
2017-10-19T18:44:29.528Z,18.00
2017-10-19T18:46:57.009Z,18.00
2017-10-19T18:49:24.474Z,17.90
2017-10-19T18:51:52.948Z,17.90
2017-10-19T18:54:21.323Z,17.80
2017-10-19T18:56:48.809Z,17.80
2017-10-19T18:59:16.279Z,17.80
2017-10-19T19:01:43.751Z,17.80
2017-10-19T19:04:11.241Z,17.80
2017-10-19T19:06:38.705Z,17.80
2017-10-19T19:09:06.196Z,17.70
2017-10-19T19:11:33.668Z,17.70
2017-10-19T19:14:01.133Z,17.80
2017-10-19T19:16:28.607Z,17.80
2017-10-19T19:18:56.093Z,17.80
2017-10-19T19:21:23.570Z,17.80
2017-10-19T19:23:51.998Z,17.90
2017-10-19T19:26:19.476Z,17.90
2017-10-19T19:28:48.634Z,17.80
2017-10-19T19:31:16.118Z,17.80
2017-10-19T19:33:43.587Z,17.80
2017-10-19T19:36:11.839Z,17.80
2017-10-19T19:38:39.301Z,17.70
2017-10-19T19:41:07.630Z,17.80
2017-10-19T19:43:35.949Z,17.70
2017-10-19T19:46:03.442Z,17.70
2017-10-19T19:48:30.909Z,17.70
2017-10-19T19:50:59.138Z,17.80
2017-10-19T19:53:26.605Z,17.80
2017-10-19T19:55:54.079Z,17.80
2017-10-19T19:58:21.553Z,17.80
2017-10-19T20:00:49.785Z,17.80
2017-10-19T20:03:17.250Z,17.80
2017-10-19T20:05:44.726Z,17.80
2017-10-19T20:08:12.205Z,17.80
2017-10-19T20:10:40.449Z,17.70
2017-10-19T20:13:07.934Z,17.70
2017-10-19T20:15:36.173Z,17.60
2017-10-19T20:18:03.687Z,17.60
2017-10-19T20:20:31.184Z,17.60
2017-10-19T20:22:58.642Z,17.50
2017-10-19T20:25:26.141Z,17.50
2017-10-19T20:27:54.378Z,17.40
2017-10-19T20:30:21.961Z,17.40
2017-10-19T20:32:49.429Z,17.40
2017-10-19T20:35:17.665Z,17.40
2017-10-19T20:37:45.162Z,17.40
2017-10-19T20:40:13.419Z,17.30
2017-10-19T20:42:40.917Z,17.30
2017-10-19T20:45:08.392Z,17.30
2017-10-19T20:47:35.890Z,17.30
2017-10-19T20:50:03.370Z,17.20
2017-10-19T20:52:31.616Z,17.20
2017-10-19T20:54:59.193Z,17.20
2017-10-19T20:57:26.723Z,17.20
2017-10-19T20:59:54.192Z,17.20
2017-10-19T21:02:21.812Z,17.30
2017-10-19T21:04:49.317Z,17.40
2017-10-19T21:07:16.833Z,17.30
2017-10-19T21:09:44.525Z,17.30
2017-10-19T21:12:11.991Z,17.20
2017-10-19T21:14:39.522Z,17.10
2017-10-19T21:17:07.009Z,17.10
2017-10-19T21:19:34.490Z,17.10
2017-10-19T21:22:02.744Z,17.10
2017-10-19T21:24:30.980Z,17.10
2017-10-19T21:26:58.682Z,17.00
2017-10-19T21:29:26.155Z,17.10
2017-10-19T21:31:54.408Z,17.10
2017-10-19T21:34:21.864Z,17.00
2017-10-19T21:36:49.351Z,17.00
2017-10-19T21:39:17.582Z,17.00
2017-10-19T21:41:45.074Z,17.00
2017-10-19T21:44:13.342Z,17.00
2017-10-19T21:46:41.578Z,16.90
2017-10-19T21:49:09.190Z,16.90
2017-10-19T21:51:37.427Z,16.80
2017-10-19T21:54:05.002Z,16.80
2017-10-19T21:56:32.478Z,16.80
2017-10-19T21:59:00.742Z,16.80
2017-10-19T22:01:28.213Z,16.80
2017-10-19T22:03:56.449Z,16.70
2017-10-19T22:06:23.931Z,16.70
2017-10-19T22:08:52.175Z,16.80
2017-10-19T22:11:19.792Z,16.80
2017-10-19T22:13:47.467Z,16.80
2017-10-19T22:16:14.931Z,16.90
2017-10-19T22:18:42.421Z,16.80
2017-10-19T22:21:09.990Z,16.90
2017-10-19T22:23:37.469Z,16.90
2017-10-19T22:26:05.691Z,16.80
2017-10-19T22:28:33.187Z,16.80
2017-10-19T22:31:00.649Z,16.80
2017-10-19T22:33:28.893Z,16.80
2017-10-19T22:35:56.372Z,16.80
2017-10-19T22:38:23.845Z,16.80
2017-10-19T22:40:52.109Z,16.90
2017-10-19T22:43:20.353Z,16.80
2017-10-19T22:45:47.841Z,16.80
2017-10-19T22:48:15.357Z,16.80
2017-10-19T22:50:42.830Z,16.80
2017-10-19T22:53:10.521Z,16.90
2017-10-19T22:55:37.992Z,17.00
2017-10-19T22:58:05.457Z,17.10
2017-10-19T23:00:32.954Z,17.10
2017-10-19T23:03:00.430Z,17.10
2017-10-19T23:05:27.893Z,17.10
2017-10-19T23:07:55.369Z,17.10
2017-10-19T23:10:23.603Z,17.10
2017-10-19T23:12:51.079Z,17.10
2017-10-19T23:15:18.573Z,17.10
2017-10-19T23:17:46.056Z,17.20
2017-10-19T23:20:13.544Z,17.20
2017-10-19T23:22:41.005Z,17.20
2017-10-19T23:25:10.082Z,17.10
2017-10-19T23:27:37.561Z,17.10
2017-10-19T23:30:05.031Z,17.20
2017-10-19T23:32:33.254Z,17.10
2017-10-19T23:35:00.753Z,17.10
2017-10-19T23:37:28.242Z,17.10
2017-10-19T23:39:55.706Z,17.10
2017-10-19T23:42:23.947Z,17.20
2017-10-19T23:44:51.416Z,17.20
2017-10-19T23:47:19.655Z,17.30
2017-10-19T23:49:47.133Z,17.30
2017-10-19T23:52:14.601Z,17.30
2017-10-19T23:54:42.867Z,17.50
2017-10-19T23:57:10.351Z,17.40
2017-10-19T23:59:37.933Z,17.50
